sensor_id;sensor_type;location;lat;lon;timestamp;P1;durP1;ratioP1;P2;durP2;ratioP2
22622;SDS011;11478;51.094;7.030;2023-06-22T00:01:31;5.97;;;4.65;;
22622;SDS011;11478;51.094;7.030;2023-06-22T00:04:09;5.57;;;4.78;;
22622;SDS011;11478;51.094;7.030;2023-06-22T00:06:34;6.18;;;4.93;;
22622;SDS011;11478;51.094;7.030;2023-06-22T00:14:16;7.53;;;4.60;;
22622;SDS011;11478;51.094;7.030;2023-06-22T00:16:47;6.47;;;4.72;;
22622;SDS011;11478;51.094;7.030;2023-06-22T00:19:14;8.75;;;4.65;;
22622;SDS011;11478;51.094;7.030;2023-06-22T00:21:41;6.93;;;4.07;;
22622;SDS011;11478;51.094;7.030;2023-06-22T00:24:08;7.90;;;5.00;;
22622;SDS011;11478;51.094;7.030;2023-06-22T00:26:42;7.70;;;4.80;;
22622;SDS011;11478;51.094;7.030;2023-06-22T00:29:08;5.22;;;4.43;;
22622;SDS011;11478;51.094;7.030;2023-06-22T00:31:36;5.13;;;4.63;;
22622;SDS011;11478;51.094;7.030;2023-06-22T00:34:02;5.78;;;4.68;;
22622;SDS011;11478;51.094;7.030;2023-06-22T00:36:31;6.97;;;4.80;;
22622;SDS011;11478;51.094;7.030;2023-06-22T00:39:07;5.85;;;4.70;;
22622;SDS011;11478;51.094;7.030;2023-06-22T00:41:43;7.68;;;5.00;;
22622;SDS011;11478;51.094;7.030;2023-06-22T00:44:09;4.90;;;4.40;;
22622;SDS011;11478;51.094;7.030;2023-06-22T00:46:46;6.55;;;4.65;;
22622;SDS011;11478;51.094;7.030;2023-06-22T00:49:12;6.38;;;5.05;;
22622;SDS011;11478;51.094;7.030;2023-06-22T00:51:46;6.22;;;4.50;;
22622;SDS011;11478;51.094;7.030;2023-06-22T00:54:13;5.10;;;4.40;;
22622;SDS011;11478;51.094;7.030;2023-06-22T00:56:40;5.05;;;4.40;;
22622;SDS011;11478;51.094;7.030;2023-06-22T00:59:07;7.35;;;4.70;;
22622;SDS011;11478;51.094;7.030;2023-06-22T01:01:56;7.78;;;4.78;;
22622;SDS011;11478;51.094;7.030;2023-06-22T01:04:23;5.68;;;4.70;;
22622;SDS011;11478;51.094;7.030;2023-06-22T01:10:07;5.45;;;4.40;;
22622;SDS011;11478;51.094;7.030;2023-06-22T01:16:26;5.00;;;4.50;;
22622;SDS011;11478;51.094;7.030;2023-06-22T01:22:06;5.60;;;4.43;;
22622;SDS011;11478;51.094;7.030;2023-06-22T01:30:51;7.00;;;4.50;;
22622;SDS011;11478;51.094;7.030;2023-06-22T01:33:29;4.68;;;4.15;;
22622;SDS011;11478;51.094;7.030;2023-06-22T01:36:02;5.72;;;4.20;;
22622;SDS011;11478;51.094;7.030;2023-06-22T01:38:37;4.50;;;4.07;;
22622;SDS011;11478;51.094;7.030;2023-06-22T01:41:10;5.55;;;4.10;;
22622;SDS011;11478;51.094;7.030;2023-06-22T01:43:38;7.50;;;4.47;;
22622;SDS011;11478;51.094;7.030;2023-06-22T01:46:14;4.47;;;4.07;;
22622;SDS011;11478;51.094;7.030;2023-06-22T01:48:40;6.63;;;4.40;;
22622;SDS011;11478;51.094;7.030;2023-06-22T01:54:04;6.60;;;4.30;;
22622;SDS011;11478;51.094;7.030;2023-06-22T01:56:45;4.70;;;4.03;;
22622;SDS011;11478;51.094;7.030;2023-06-22T01:59:16;4.40;;;3.80;;
22622;SDS011;11478;51.094;7.030;2023-06-22T02:01:54;6.82;;;4.10;;
22622;SDS011;11478;51.094;7.030;2023-06-22T02:04:51;5.65;;;4.25;;
22622;SDS011;11478;51.094;7.030;2023-06-22T02:08:07;5.00;;;3.55;;
22622;SDS011;11478;51.094;7.030;2023-06-22T02:10:32;6.78;;;4.30;;
22622;SDS011;11478;51.094;7.030;2023-06-22T02:13:01;5.38;;;3.80;;
22622;SDS011;11478;51.094;7.030;2023-06-22T02:15:45;4.43;;;3.75;;
22622;SDS011;11478;51.094;7.030;2023-06-22T02:18:12;4.75;;;4.00;;
22622;SDS011;11478;51.094;7.030;2023-06-22T02:20:39;11.57;;;4.60;;
22622;SDS011;11478;51.094;7.030;2023-06-22T02:23:05;5.35;;;4.22;;
22622;SDS011;11478;51.094;7.030;2023-06-22T02:25:34;5.40;;;4.13;;
22622;SDS011;11478;51.094;7.030;2023-06-22T02:28:01;6.40;;;3.97;;
22622;SDS011;11478;51.094;7.030;2023-06-22T02:30:38;5.50;;;4.25;;
22622;SDS011;11478;51.094;7.030;2023-06-22T02:33:04;7.50;;;4.50;;
22622;SDS011;11478;51.094;7.030;2023-06-22T02:38:16;5.15;;;3.97;;
22622;SDS011;11478;51.094;7.030;2023-06-22T02:40:50;6.38;;;3.78;;
22622;SDS011;11478;51.094;7.030;2023-06-22T02:43:16;5.95;;;3.83;;
22622;SDS011;11478;51.094;7.030;2023-06-22T02:45:42;5.60;;;3.90;;
22622;SDS011;11478;51.094;7.030;2023-06-22T02:48:08;5.50;;;3.85;;
22622;SDS011;11478;51.094;7.030;2023-06-22T02:50:39;5.38;;;4.07;;
22622;SDS011;11478;51.094;7.030;2023-06-22T02:53:04;6.50;;;4.07;;
22622;SDS011;11478;51.094;7.030;2023-06-22T02:55:30;5.43;;;4.32;;
22622;SDS011;11478;51.094;7.030;2023-06-22T02:57:56;4.65;;;3.75;;
22622;SDS011;11478;51.094;7.030;2023-06-22T03:00:25;6.93;;;4.13;;
22622;SDS011;11478;51.094;7.030;2023-06-22T03:02:55;6.53;;;4.80;;
22622;SDS011;11478;51.094;7.030;2023-06-22T03:05:22;5.70;;;3.97;;
22622;SDS011;11478;51.094;7.030;2023-06-22T03:07:49;4.35;;;3.90;;
22622;SDS011;11478;51.094;7.030;2023-06-22T03:10:15;4.25;;;3.85;;
22622;SDS011;11478;51.094;7.030;2023-06-22T03:12:41;5.70;;;4.07;;
22622;SDS011;11478;51.094;7.030;2023-06-22T03:15:09;6.78;;;4.90;;
22622;SDS011;11478;51.094;7.030;2023-06-22T03:17:36;4.45;;;3.83;;
22622;SDS011;11478;51.094;7.030;2023-06-22T03:20:04;5.78;;;4.25;;
22622;SDS011;11478;51.094;7.030;2023-06-22T03:22:38;5.95;;;4.32;;
22622;SDS011;11478;51.094;7.030;2023-06-22T03:25:04;5.20;;;3.50;;
22622;SDS011;11478;51.094;7.030;2023-06-22T03:27:39;7.68;;;3.65;;
22622;SDS011;11478;51.094;7.030;2023-06-22T03:30:06;4.63;;;3.70;;
22622;SDS011;11478;51.094;7.030;2023-06-22T03:32:34;5.28;;;3.83;;
22622;SDS011;11478;51.094;7.030;2023-06-22T03:35:00;3.95;;;3.55;;
22622;SDS011;11478;51.094;7.030;2023-06-22T03:37:30;4.60;;;3.67;;
22622;SDS011;11478;51.094;7.030;2023-06-22T03:39:55;5.10;;;3.92;;
22622;SDS011;11478;51.094;7.030;2023-06-22T03:42:23;4.55;;;3.58;;
22622;SDS011;11478;51.094;7.030;2023-06-22T03:44:49;4.43;;;3.78;;
22622;SDS011;11478;51.094;7.030;2023-06-22T03:47:17;4.63;;;3.75;;
22622;SDS011;11478;51.094;7.030;2023-06-22T03:49:43;5.82;;;3.88;;
22622;SDS011;11478;51.094;7.030;2023-06-22T03:52:16;8.07;;;4.10;;
22622;SDS011;11478;51.094;7.030;2023-06-22T03:54:41;7.25;;;4.05;;
22622;SDS011;11478;51.094;7.030;2023-06-22T03:57:21;5.05;;;4.00;;
22622;SDS011;11478;51.094;7.030;2023-06-22T03:59:47;5.03;;;3.70;;
22622;SDS011;11478;51.094;7.030;2023-06-22T04:02:13;5.07;;;4.07;;
22622;SDS011;11478;51.094;7.030;2023-06-22T04:04:39;6.15;;;4.03;;
22622;SDS011;11478;51.094;7.030;2023-06-22T04:07:12;5.05;;;3.80;;
22622;SDS011;11478;51.094;7.030;2023-06-22T04:09:38;5.20;;;4.00;;
22622;SDS011;11478;51.094;7.030;2023-06-22T04:12:04;6.38;;;4.47;;
22622;SDS011;11478;51.094;7.030;2023-06-22T04:14:30;5.28;;;3.70;;
22622;SDS011;11478;51.094;7.030;2023-06-22T04:16:57;7.07;;;3.90;;
22622;SDS011;11478;51.094;7.030;2023-06-22T04:19:24;4.20;;;3.72;;
22622;SDS011;11478;51.094;7.030;2023-06-22T04:21:53;4.57;;;3.53;;
22622;SDS011;11478;51.094;7.030;2023-06-22T04:26:55;5.38;;;4.00;;
22622;SDS011;11478;51.094;7.030;2023-06-22T04:29:21;7.20;;;4.53;;
22622;SDS011;11478;51.094;7.030;2023-06-22T04:31:54;4.85;;;4.00;;
22622;SDS011;11478;51.094;7.030;2023-06-22T04:34:29;5.93;;;4.20;;
22622;SDS011;11478;51.094;7.030;2023-06-22T04:41:55;5.82;;;3.97;;
22622;SDS011;11478;51.094;7.030;2023-06-22T04:44:27;5.32;;;3.70;;
22622;SDS011;11478;51.094;7.030;2023-06-22T04:46:57;7.35;;;3.83;;
22622;SDS011;11478;51.094;7.030;2023-06-22T04:49:42;6.75;;;4.20;;
22622;SDS011;11478;51.094;7.030;2023-06-22T04:52:09;5.00;;;4.22;;
22622;SDS011;11478;51.094;7.030;2023-06-22T04:57:13;4.10;;;3.65;;
22622;SDS011;11478;51.094;7.030;2023-06-22T04:59:41;5.32;;;3.85;;
22622;SDS011;11478;51.094;7.030;2023-06-22T05:02:11;4.45;;;3.78;;
22622;SDS011;11478;51.094;7.030;2023-06-22T05:04:39;6.55;;;4.03;;
22622;SDS011;11478;51.094;7.030;2023-06-22T05:07:05;4.28;;;3.80;;
22622;SDS011;11478;51.094;7.030;2023-06-22T05:09:31;6.05;;;4.28;;
22622;SDS011;11478;51.094;7.030;2023-06-22T05:12:06;5.72;;;4.40;;
22622;SDS011;11478;51.094;7.030;2023-06-22T05:14:32;4.55;;;3.97;;
22622;SDS011;11478;51.094;7.030;2023-06-22T05:16:58;5.07;;;4.40;;
22622;SDS011;11478;51.094;7.030;2023-06-22T05:19:28;5.97;;;3.97;;
22622;SDS011;11478;51.094;7.030;2023-06-22T05:24:28;5.38;;;4.35;;
22622;SDS011;11478;51.094;7.030;2023-06-22T05:27:13;6.07;;;4.45;;
22622;SDS011;11478;51.094;7.030;2023-06-22T05:29:39;5.38;;;4.15;;
22622;SDS011;11478;51.094;7.030;2023-06-22T05:32:05;5.55;;;4.20;;
22622;SDS011;11478;51.094;7.030;2023-06-22T05:34:32;5.63;;;4.30;;
22622;SDS011;11478;51.094;7.030;2023-06-22T05:36:58;6.90;;;4.10;;
22622;SDS011;11478;51.094;7.030;2023-06-22T05:39:27;5.57;;;4.20;;
22622;SDS011;11478;51.094;7.030;2023-06-22T05:42:00;4.80;;;4.25;;
22622;SDS011;11478;51.094;7.030;2023-06-22T05:44:28;5.68;;;4.72;;
22622;SDS011;11478;51.094;7.030;2023-06-22T05:46:55;6.72;;;4.47;;
22622;SDS011;11478;51.094;7.030;2023-06-22T05:49:21;5.43;;;4.10;;
22622;SDS011;11478;51.094;7.030;2023-06-22T05:51:47;7.05;;;4.30;;
22622;SDS011;11478;51.094;7.030;2023-06-22T05:54:16;4.90;;;4.40;;
22622;SDS011;11478;51.094;7.030;2023-06-22T05:59:20;6.28;;;4.80;;
22622;SDS011;11478;51.094;7.030;2023-06-22T06:01:59;5.07;;;4.57;;
22622;SDS011;11478;51.094;7.030;2023-06-22T06:04:25;7.60;;;5.15;;
22622;SDS011;11478;51.094;7.030;2023-06-22T06:09:20;7.45;;;4.78;;
22622;SDS011;11478;51.094;7.030;2023-06-22T06:11:46;5.05;;;4.55;;
22622;SDS011;11478;51.094;7.030;2023-06-22T06:14:11;7.20;;;4.45;;
22622;SDS011;11478;51.094;7.030;2023-06-22T06:20:13;6.85;;;4.80;;
22622;SDS011;11478;51.094;7.030;2023-06-22T06:22:39;7.65;;;5.43;;
22622;SDS011;11478;51.094;7.030;2023-06-22T06:25:13;5.93;;;4.93;;
22622;SDS011;11478;51.094;7.030;2023-06-22T06:27:46;5.97;;;5.38;;
22622;SDS011;11478;51.094;7.030;2023-06-22T06:30:14;7.82;;;5.55;;
22622;SDS011;11478;51.094;7.030;2023-06-22T06:32:41;6.40;;;5.43;;
22622;SDS011;11478;51.094;7.030;2023-06-22T06:35:09;6.85;;;5.53;;
22622;SDS011;11478;51.094;7.030;2023-06-22T06:37:36;7.90;;;5.10;;
22622;SDS011;11478;51.094;7.030;2023-06-22T06:40:07;10.48;;;5.72;;
22622;SDS011;11478;51.094;7.030;2023-06-22T06:42:39;8.13;;;5.90;;
22622;SDS011;11478;51.094;7.030;2023-06-22T06:45:41;7.95;;;6.72;;
22622;SDS011;11478;51.094;7.030;2023-06-22T06:48:06;9.20;;;8.18;;
22622;SDS011;11478;51.094;7.030;2023-06-22T06:50:34;8.48;;;7.68;;
22622;SDS011;11478;51.094;7.030;2023-06-22T06:53:03;8.68;;;7.20;;
22622;SDS011;11478;51.094;7.030;2023-06-22T06:55:38;8.10;;;7.28;;
22622;SDS011;11478;51.094;7.030;2023-06-22T06:58:07;8.48;;;7.57;;
22622;SDS011;11478;51.094;7.030;2023-06-22T07:03:13;9.45;;;7.78;;
22622;SDS011;11478;51.094;7.030;2023-06-22T07:05:45;10.90;;;8.38;;
22622;SDS011;11478;51.094;7.030;2023-06-22T07:08:16;8.68;;;7.82;;
22622;SDS011;11478;51.094;7.030;2023-06-22T07:10:44;10.25;;;8.80;;
22622;SDS011;11478;51.094;7.030;2023-06-22T07:15:39;9.43;;;8.20;;
22622;SDS011;11478;51.094;7.030;2023-06-22T07:18:13;9.63;;;8.63;;
22622;SDS011;11478;51.094;7.030;2023-06-22T07:23:16;8.90;;;8.03;;
22622;SDS011;11478;51.094;7.030;2023-06-22T07:25:46;9.00;;;8.10;;
22622;SDS011;11478;51.094;7.030;2023-06-22T07:28:14;8.85;;;7.95;;
22622;SDS011;11478;51.094;7.030;2023-06-22T07:30:43;9.10;;;8.20;;
22622;SDS011;11478;51.094;7.030;2023-06-22T07:35:59;8.48;;;7.68;;
22622;SDS011;11478;51.094;7.030;2023-06-22T07:38:25;7.80;;;7.00;;
22622;SDS011;11478;51.094;7.030;2023-06-22T07:40:52;9.95;;;8.02;;
22622;SDS011;11478;51.094;7.030;2023-06-22T07:45:48;9.05;;;7.70;;
22622;SDS011;11478;51.094;7.030;2023-06-22T07:48:31;8.93;;;7.43;;
22622;SDS011;11478;51.094;7.030;2023-06-22T07:50:57;8.20;;;7.43;;
22622;SDS011;11478;51.094;7.030;2023-06-22T07:53:24;8.00;;;7.20;;
22622;SDS011;11478;51.094;7.030;2023-06-22T07:55:52;9.88;;;7.53;;
22622;SDS011;11478;51.094;7.030;2023-06-22T07:58:20;8.07;;;7.30;;
22622;SDS011;11478;51.094;7.030;2023-06-22T08:00:46;8.95;;;7.78;;
22622;SDS011;11478;51.094;7.030;2023-06-22T08:05:48;8.00;;;7.22;;
22622;SDS011;11478;51.094;7.030;2023-06-22T08:11:25;8.80;;;7.07;;
22622;SDS011;11478;51.094;7.030;2023-06-22T08:13:54;7.82;;;6.80;;
22622;SDS011;11478;51.094;7.030;2023-06-22T08:16:21;11.32;;;6.85;;
22622;SDS011;11478;51.094;7.030;2023-06-22T08:18:50;7.70;;;6.88;;
22622;SDS011;11478;51.094;7.030;2023-06-22T08:21:19;6.60;;;5.88;;
22622;SDS011;11478;51.094;7.030;2023-06-22T08:23:54;7.82;;;6.63;;
22622;SDS011;11478;51.094;7.030;2023-06-22T08:26:21;7.18;;;6.47;;
22622;SDS011;11478;51.094;7.030;2023-06-22T08:28:50;7.35;;;6.47;;
22622;SDS011;11478;51.094;7.030;2023-06-22T08:31:17;7.03;;;6.32;;
22622;SDS011;11478;51.094;7.030;2023-06-22T08:33:43;10.57;;;6.80;;
22622;SDS011;11478;51.094;7.030;2023-06-22T08:36:15;9.40;;;7.07;;
22622;SDS011;11478;51.094;7.030;2023-06-22T08:38:50;8.23;;;6.35;;
22622;SDS011;11478;51.094;7.030;2023-06-22T08:41:29;7.70;;;6.90;;
22622;SDS011;11478;51.094;7.030;2023-06-22T08:43:58;6.85;;;6.25;;
22622;SDS011;11478;51.094;7.030;2023-06-22T08:46:31;9.32;;;6.55;;
22622;SDS011;11478;51.094;7.030;2023-06-22T08:48:59;7.07;;;6.38;;
22622;SDS011;11478;51.094;7.030;2023-06-22T08:53:59;6.88;;;6.15;;
22622;SDS011;11478;51.094;7.030;2023-06-22T08:56:31;8.57;;;6.78;;
22622;SDS011;11478;51.094;7.030;2023-06-22T08:59:02;6.80;;;6.10;;
22622;SDS011;11478;51.094;7.030;2023-06-22T09:01:43;11.00;;;7.05;;
22622;SDS011;11478;51.094;7.030;2023-06-22T09:04:13;6.88;;;6.18;;
22622;SDS011;11478;51.094;7.030;2023-06-22T09:06:41;7.50;;;6.30;;
22622;SDS011;11478;51.094;7.030;2023-06-22T09:09:12;7.22;;;6.55;;
22622;SDS011;11478;51.094;7.030;2023-06-22T09:14:24;6.70;;;5.72;;
22622;SDS011;11478;51.094;7.030;2023-06-22T09:16:56;6.53;;;5.72;;
22622;SDS011;11478;51.094;7.030;2023-06-22T09:19:36;6.25;;;5.60;;
22622;SDS011;11478;51.094;7.030;2023-06-22T09:22:05;8.43;;;6.43;;
22622;SDS011;11478;51.094;7.030;2023-06-22T09:24:35;6.93;;;6.22;;
22622;SDS011;11478;51.094;7.030;2023-06-22T09:27:02;8.00;;;6.25;;
22622;SDS011;11478;51.094;7.030;2023-06-22T09:32:26;7.50;;;6.53;;
22622;SDS011;11478;51.094;7.030;2023-06-22T09:35:04;7.45;;;6.60;;
22622;SDS011;11478;51.094;7.030;2023-06-22T09:37:40;9.50;;;6.60;;
22622;SDS011;11478;51.094;7.030;2023-06-22T09:42:38;6.60;;;6.00;;
22622;SDS011;11478;51.094;7.030;2023-06-22T09:47:55;7.32;;;6.63;;
22622;SDS011;11478;51.094;7.030;2023-06-22T09:50:28;7.20;;;6.50;;
22622;SDS011;11478;51.094;7.030;2023-06-22T09:52:54;7.47;;;6.10;;
22622;SDS011;11478;51.094;7.030;2023-06-22T09:55:32;7.30;;;6.60;;
22622;SDS011;11478;51.094;7.030;2023-06-22T09:57:58;8.15;;;6.28;;
22622;SDS011;11478;51.094;7.030;2023-06-22T10:00:34;7.47;;;5.82;;
22622;SDS011;11478;51.094;7.030;2023-06-22T10:02:59;6.82;;;6.20;;
22622;SDS011;11478;51.094;7.030;2023-06-22T10:05:26;8.13;;;5.90;;
22622;SDS011;11478;51.094;7.030;2023-06-22T10:07:55;6.70;;;6.00;;
22622;SDS011;11478;51.094;7.030;2023-06-22T10:10:29;7.38;;;6.32;;
22622;SDS011;11478;51.094;7.030;2023-06-22T10:13:02;7.13;;;6.40;;
22622;SDS011;11478;51.094;7.030;2023-06-22T10:15:42;9.32;;;6.40;;
22622;SDS011;11478;51.094;7.030;2023-06-22T10:21:04;6.80;;;6.07;;
22622;SDS011;11478;51.094;7.030;2023-06-22T10:23:30;6.97;;;6.03;;
22622;SDS011;11478;51.094;7.030;2023-06-22T10:26:02;7.78;;;6.47;;
22622;SDS011;11478;51.094;7.030;2023-06-22T10:28:38;6.55;;;5.90;;
22622;SDS011;11478;51.094;7.030;2023-06-22T10:31:12;7.05;;;6.30;;
22622;SDS011;11478;51.094;7.030;2023-06-22T10:36:12;6.63;;;5.93;;
22622;SDS011;11478;51.094;7.030;2023-06-22T10:38:40;10.00;;;6.32;;
22622;SDS011;11478;51.094;7.030;2023-06-22T10:41:06;9.13;;;6.90;;
22622;SDS011;11478;51.094;7.030;2023-06-22T10:43:37;10.60;;;7.43;;
22622;SDS011;11478;51.094;7.030;2023-06-22T10:49:34;12.68;;;8.48;;
22622;SDS011;11478;51.094;7.030;2023-06-22T10:52:02;11.05;;;8.10;;
22622;SDS011;11478;51.094;7.030;2023-06-22T10:54:32;13.05;;;8.93;;
22622;SDS011;11478;51.094;7.030;2023-06-22T10:57:00;13.93;;;8.80;;
22622;SDS011;11478;51.094;7.030;2023-06-22T10:59:35;12.18;;;9.77;;
22622;SDS011;11478;51.094;7.030;2023-06-22T11:02:01;11.15;;;9.60;;
22622;SDS011;11478;51.094;7.030;2023-06-22T11:04:48;28.75;;;11.40;;
22622;SDS011;11478;51.094;7.030;2023-06-22T11:10:36;28.33;;;13.77;;
22622;SDS011;11478;51.094;7.030;2023-06-22T11:16:43;33.88;;;16.88;;
22622;SDS011;11478;51.094;7.030;2023-06-22T11:19:30;26.90;;;15.13;;
22622;SDS011;11478;51.094;7.030;2023-06-22T11:22:06;24.35;;;15.60;;
22622;SDS011;11478;51.094;7.030;2023-06-22T11:24:38;21.90;;;15.20;;
22622;SDS011;11478;51.094;7.030;2023-06-22T11:27:19;23.42;;;15.13;;
22622;SDS011;11478;51.094;7.030;2023-06-22T11:37:00;26.08;;;18.42;;
22622;SDS011;11478;51.094;7.030;2023-06-22T11:39:37;18.35;;;16.42;;
22622;SDS011;11478;51.094;7.030;2023-06-22T11:42:19;21.00;;;17.08;;
22622;SDS011;11478;51.094;7.030;2023-06-22T11:44:44;24.63;;;17.63;;
22622;SDS011;11478;51.094;7.030;2023-06-22T11:53:11;22.50;;;18.02;;
22622;SDS011;11478;51.094;7.030;2023-06-22T12:02:11;20.45;;;16.40;;
22622;SDS011;11478;51.094;7.030;2023-06-22T12:05:07;22.55;;;17.55;;
22622;SDS011;11478;51.094;7.030;2023-06-22T12:07:40;20.50;;;18.08;;
22622;SDS011;11478;51.094;7.030;2023-06-22T12:16:33;18.25;;;14.55;;
22622;SDS011;11478;51.094;7.030;2023-06-22T12:21:29;16.77;;;12.90;;
22622;SDS011;11478;51.094;7.030;2023-06-22T12:24:02;15.55;;;12.30;;
22622;SDS011;11478;51.094;7.030;2023-06-22T12:26:34;15.13;;;13.50;;
22622;SDS011;11478;51.094;7.030;2023-06-22T12:29:32;13.85;;;12.48;;
22622;SDS011;11478;51.094;7.030;2023-06-22T12:35:11;14.13;;;12.73;;
22622;SDS011;11478;51.094;7.030;2023-06-22T12:37:41;16.48;;;14.60;;
22622;SDS011;11478;51.094;7.030;2023-06-22T12:40:11;19.05;;;14.38;;
22622;SDS011;11478;51.094;7.030;2023-06-22T12:42:48;16.20;;;14.50;;
22622;SDS011;11478;51.094;7.030;2023-06-22T12:45:14;17.25;;;15.35;;
22622;SDS011;11478;51.094;7.030;2023-06-22T12:47:45;19.00;;;15.73;;
22622;SDS011;11478;51.094;7.030;2023-06-22T12:50:12;17.80;;;15.82;;
22622;SDS011;11478;51.094;7.030;2023-06-22T12:52:44;22.15;;;17.13;;
22622;SDS011;11478;51.094;7.030;2023-06-22T12:55:13;16.15;;;14.55;;
22622;SDS011;11478;51.094;7.030;2023-06-22T12:57:43;13.85;;;12.40;;
22622;SDS011;11478;51.094;7.030;2023-06-22T13:00:12;15.98;;;14.27;;
22622;SDS011;11478;51.094;7.030;2023-06-22T13:02:38;14.07;;;11.93;;
22622;SDS011;11478;51.094;7.030;2023-06-22T13:05:07;12.05;;;10.77;;
22622;SDS011;11478;51.094;7.030;2023-06-22T13:07:40;12.75;;;10.65;;
22622;SDS011;11478;51.094;7.030;2023-06-22T13:10:07;15.25;;;11.35;;
22622;SDS011;11478;51.094;7.030;2023-06-22T13:12:40;14.60;;;10.27;;
22622;SDS011;11478;51.094;7.030;2023-06-22T13:15:11;11.95;;;10.75;;
22622;SDS011;11478;51.094;7.030;2023-06-22T13:17:44;12.18;;;10.23;;
22622;SDS011;11478;51.094;7.030;2023-06-22T13:20:14;13.90;;;10.75;;
22622;SDS011;11478;51.094;7.030;2023-06-22T13:22:40;10.23;;;9.23;;
22622;SDS011;11478;51.094;7.030;2023-06-22T13:25:14;8.73;;;7.82;;
22622;SDS011;11478;51.094;7.030;2023-06-22T13:27:51;9.60;;;8.30;;
22622;SDS011;11478;51.094;7.030;2023-06-22T13:30:34;8.35;;;7.55;;
22622;SDS011;11478;51.094;7.030;2023-06-22T13:33:08;9.57;;;8.27;;
22622;SDS011;11478;51.094;7.030;2023-06-22T13:35:34;9.50;;;8.43;;
22622;SDS011;11478;51.094;7.030;2023-06-22T13:38:08;9.63;;;8.63;;
22622;SDS011;11478;51.094;7.030;2023-06-22T13:40:34;11.27;;;8.63;;
22622;SDS011;11478;51.094;7.030;2023-06-22T13:43:08;10.98;;;9.88;;
22622;SDS011;11478;51.094;7.030;2023-06-22T13:45:34;10.75;;;9.70;;
22622;SDS011;11478;51.094;7.030;2023-06-22T13:50:34;10.65;;;9.50;;
22622;SDS011;11478;51.094;7.030;2023-06-22T13:53:13;11.55;;;10.43;;
22622;SDS011;11478;51.094;7.030;2023-06-22T13:55:39;10.75;;;9.65;;
22622;SDS011;11478;51.094;7.030;2023-06-22T13:58:16;10.82;;;9.07;;
22622;SDS011;11478;51.094;7.030;2023-06-22T14:00:41;10.10;;;8.65;;
22622;SDS011;11478;51.094;7.030;2023-06-22T14:03:07;9.50;;;8.43;;
22622;SDS011;11478;51.094;7.030;2023-06-22T14:05:33;10.18;;;8.30;;
22622;SDS011;11478;51.094;7.030;2023-06-22T14:08:08;11.00;;;8.70;;
22622;SDS011;11478;51.094;7.030;2023-06-22T14:10:37;9.02;;;8.00;;
22622;SDS011;11478;51.094;7.030;2023-06-22T14:13:03;9.40;;;8.23;;
22622;SDS011;11478;51.094;7.030;2023-06-22T14:15:31;7.72;;;6.93;;
22622;SDS011;11478;51.094;7.030;2023-06-22T14:18:04;6.43;;;5.82;;
22622;SDS011;11478;51.094;7.030;2023-06-22T14:20:39;8.05;;;5.63;;
22622;SDS011;11478;51.094;7.030;2023-06-22T14:23:05;6.28;;;5.53;;
22622;SDS011;11478;51.094;7.030;2023-06-22T14:25:37;6.75;;;5.43;;
22622;SDS011;11478;51.094;7.030;2023-06-22T14:28:07;6.57;;;5.70;;
22622;SDS011;11478;51.094;7.030;2023-06-22T14:30:38;5.60;;;5.07;;
22622;SDS011;11478;51.094;7.030;2023-06-22T14:33:06;7.75;;;5.85;;
22622;SDS011;11478;51.094;7.030;2023-06-22T14:35:37;7.45;;;5.50;;
22622;SDS011;11478;51.094;7.030;2023-06-22T14:38:06;7.85;;;6.03;;
22622;SDS011;11478;51.094;7.030;2023-06-22T14:43:09;7.70;;;6.15;;
22622;SDS011;11478;51.094;7.030;2023-06-22T14:45:41;7.68;;;6.60;;
22622;SDS011;11478;51.094;7.030;2023-06-22T14:48:07;7.78;;;6.88;;
22622;SDS011;11478;51.094;7.030;2023-06-22T14:50:36;8.10;;;7.30;;
22622;SDS011;11478;51.094;7.030;2023-06-22T14:53:11;8.02;;;7.20;;
22622;SDS011;11478;51.094;7.030;2023-06-22T14:55:54;8.88;;;6.97;;
22622;SDS011;11478;51.094;7.030;2023-06-22T14:58:20;8.73;;;7.10;;
22622;SDS011;11478;51.094;7.030;2023-06-22T15:00:48;10.02;;;7.53;;
22622;SDS011;11478;51.094;7.030;2023-06-22T15:03:15;8.10;;;7.30;;
22622;SDS011;11478;51.094;7.030;2023-06-22T15:08:15;8.90;;;8.00;;
22622;SDS011;11478;51.094;7.030;2023-06-22T15:13:46;12.77;;;8.95;;
22622;SDS011;11478;51.094;7.030;2023-06-22T15:19:39;31.67;;;13.02;;
22622;SDS011;11478;51.094;7.030;2023-06-22T15:22:19;25.42;;;12.15;;
22622;SDS011;11478;51.094;7.030;2023-06-22T15:24:48;19.42;;;11.05;;
22622;SDS011;11478;51.094;7.030;2023-06-22T15:27:14;17.95;;;11.20;;
22622;SDS011;11478;51.094;7.030;2023-06-22T15:29:41;25.90;;;12.43;;
22622;SDS011;11478;51.094;7.030;2023-06-22T15:32:14;25.15;;;12.60;;
22622;SDS011;11478;51.094;7.030;2023-06-22T15:34:40;14.10;;;11.13;;
22622;SDS011;11478;51.094;7.030;2023-06-22T15:37:09;22.65;;;12.63;;
22622;SDS011;11478;51.094;7.030;2023-06-22T15:39:44;23.83;;;13.20;;
22622;SDS011;11478;51.094;7.030;2023-06-22T15:42:20;14.15;;;12.65;;
22622;SDS011;11478;51.094;7.030;2023-06-22T15:44:46;18.65;;;13.82;;
22622;SDS011;11478;51.094;7.030;2023-06-22T15:47:13;22.00;;;13.15;;
22622;SDS011;11478;51.094;7.030;2023-06-22T15:49:40;14.68;;;13.02;;
22622;SDS011;11478;51.094;7.030;2023-06-22T15:52:08;15.60;;;13.10;;
22622;SDS011;11478;51.094;7.030;2023-06-22T15:54:34;14.50;;;13.00;;
22622;SDS011;11478;51.094;7.030;2023-06-22T15:57:00;20.23;;;12.82;;
22622;SDS011;11478;51.094;7.030;2023-06-22T15:59:26;18.25;;;13.57;;
22622;SDS011;11478;51.094;7.030;2023-06-22T16:01:53;19.02;;;14.68;;
22622;SDS011;11478;51.094;7.030;2023-06-22T16:04:20;19.35;;;15.43;;
22622;SDS011;11478;51.094;7.030;2023-06-22T16:06:50;18.95;;;14.80;;
22622;SDS011;11478;51.094;7.030;2023-06-22T16:09:15;21.98;;;14.88;;
22622;SDS011;11478;51.094;7.030;2023-06-22T16:14:15;17.33;;;15.07;;
22622;SDS011;11478;51.094;7.030;2023-06-22T16:16:48;18.60;;;15.98;;
22622;SDS011;11478;51.094;7.030;2023-06-22T16:19:14;16.98;;;15.07;;
22622;SDS011;11478;51.094;7.030;2023-06-22T16:21:41;20.40;;;16.02;;
22622;SDS011;11478;51.094;7.030;2023-06-22T16:24:07;19.27;;;15.75;;
22622;SDS011;11478;51.094;7.030;2023-06-22T16:26:41;19.70;;;15.07;;
22622;SDS011;11478;51.094;7.030;2023-06-22T16:29:08;19.60;;;15.93;;
22622;SDS011;11478;51.094;7.030;2023-06-22T16:31:35;19.73;;;14.30;;
22622;SDS011;11478;51.094;7.030;2023-06-22T16:34:02;16.30;;;14.10;;
22622;SDS011;11478;51.094;7.030;2023-06-22T16:36:28;15.20;;;13.60;;
22622;SDS011;11478;51.094;7.030;2023-06-22T16:39:00;15.52;;;13.57;;
22622;SDS011;11478;51.094;7.030;2023-06-22T16:41:29;16.23;;;14.27;;
22622;SDS011;11478;51.094;7.030;2023-06-22T16:44:00;16.80;;;14.23;;
22622;SDS011;11478;51.094;7.030;2023-06-22T16:46:33;21.48;;;14.80;;
22622;SDS011;11478;51.094;7.030;2023-06-22T16:48:59;18.88;;;15.93;;
22622;SDS011;11478;51.094;7.030;2023-06-22T16:51:25;19.30;;;16.23;;
22622;SDS011;11478;51.094;7.030;2023-06-22T16:53:55;18.23;;;16.38;;
22622;SDS011;11478;51.094;7.030;2023-06-22T16:56:27;20.33;;;16.45;;
22622;SDS011;11478;51.094;7.030;2023-06-22T16:58:59;19.83;;;17.42;;
22622;SDS011;11478;51.094;7.030;2023-06-22T17:01:31;18.38;;;16.42;;
22622;SDS011;11478;51.094;7.030;2023-06-22T17:04:11;20.40;;;16.95;;
22622;SDS011;11478;51.094;7.030;2023-06-22T17:06:46;18.27;;;16.30;;
22622;SDS011;11478;51.094;7.030;2023-06-22T17:09:20;21.02;;;16.38;;
22622;SDS011;11478;51.094;7.030;2023-06-22T17:12:09;21.23;;;16.15;;
22622;SDS011;11478;51.094;7.030;2023-06-22T17:15:37;17.63;;;15.05;;
22622;SDS011;11478;51.094;7.030;2023-06-22T17:17:51;17.30;;;15.50;;
22622;SDS011;11478;51.094;7.030;2023-06-22T17:20:20;17.40;;;15.05;;
22622;SDS011;11478;51.094;7.030;2023-06-22T17:23:04;16.17;;;14.48;;
22622;SDS011;11478;51.094;7.030;2023-06-22T17:25:33;16.98;;;14.82;;